Vremea acum in Baia De Aries - Romania

Vrei sa afli care e starea vremii acum in Arad - Romania? Dorim sa iti furnizam starea vremii pentru Arad - Romania. Starea vremii Arad - Romania pentru astazi.

Vremea acum in Baia De Aries

Temperatura: 23 °C

Se simte ca: 24.9 °C
Innorat: 50 %
Precipitatii: 68 %
Presiune atmosferica: 1022 hPa
Umiditate: 61%
Vizibilitate: 10 km
Vantul bate din NW cu 6.8 km/h

Evolutia vremii in Baia De Aries pe ore

Ora: 20:00
Ploi pe porţiuni în apropiere
Temperatura: 20.5°C
Sansa de precipitatii: 68%
Ora Descriere Temp Se simte Precipitatii Umiditate Vant
00:00Parțial noros15.8°15.8°0%77%NNE 6.8 KM/H
01:00Parțial noros15.8°15.8°0%78%NNE 6.8 KM/H
02:00Parțial noros15.7°15.7°0%78%NNE 6.5 KM/H
03:00Parțial noros15.5°15.5°0%79%NNE 6.1 KM/H
04:00Parțial noros15.3°15.3°0%80%NNE 5.8 KM/H
05:00Parțial noros15.1°15.1°0%80%NNE 5.4 KM/H
06:00Parțial noros16.8°16.8°0%76%NE 4.7 KM/H
07:00Parțial noros18.4°18.4°0%72%ENE 4.3 KM/H
08:00Parțial noros20.1°20.1°0%67%E 3.6 KM/H
09:00Ploi pe porţiuni în apropiere21.6°21.6°28%59%E 3.6 KM/H
10:00Parțial noros23.2°23.6°56%52%ESE 3.6 KM/H
11:00Ploi pe porţiuni în apropiere24.7°25.4°84%44%SE 3.6 KM/H
12:00Ploi pe porţiuni în apropiere24.8°25.5°76%45%ESE 3.6 KM/H
13:00Ploi pe porţiuni în apropiere24.9°25.6°68%46%ESE 3.6 KM/H
14:00Ploi pe porţiuni în apropiere25°25.7°60%47%ESE 3.6 KM/H
15:00Ploi moderate uneori24.5°25.5°63%49%E 4 KM/H
16:00Ploi pe porţiuni în apropiere24°25.2°67%51%ENE 4.3 KM/H
17:00Ploi moderate uneori23.5°25°70%54%NE 4.7 KM/H
18:00Ploi pe porţiuni în apropiere22.5°24.5°69%59%NE 5 KM/H
19:00Ploi moderate uneori21.5°21.5°69%65%NNE 5.8 KM/H
20:00Ploi pe porţiuni în apropiere20.5°20.5°68%70%NNE 6.1 KM/H
21:00Parțial noros19°19°45%71%NNE 6.8 KM/H
22:00Ploi pe porţiuni în apropiere17.4°17.4°23%71%NNE 7.2 KM/H
23:00Parțial noros15.9°15.9°0%71%NE 7.9 KM/H